Details From LJLJ - Ljubljana
To LJPZ - Portoroz
Flight Number -
Tags Decoded
Created
Modified
Stats Distance 100 nm / 186 km
Max Altitude 1,000 ft / 305 m
Waypoints 9
Social Downloads 0
Likes 0
Share VATSIM

Download

Looking for another format? Having issues loading an existing format? Contact us
Advertisement - Login to hide

Notes

Decoded

Route

LJLJ DOL14 MG REBRO MG082 DOL ILB BUGEV LJPZ

ID Type Via Altitude Latitude Longitude Leg Dist Tot Dist Heading (true) Name
O LJLJ APT - 0 ft / 0 m 46.23249˚ 14.44039˚ - 0 nm - -
DOL14 FIX - 1,000 ft / 305 m 46.25169˚ 14.54500˚ 4 nm 4 nm 75° / 75° -
MG NDB - 1,000 ft / 305 m 46.17323˚ 14.55594˚ 4 nm 9 nm 174° / 174° LJUBLJANA NDB
REBRO FIX - 1,000 ft / 305 m 46.11284˚ 14.37304˚ 8 nm 17 nm 245° / 244° -
MG082 FIX - 1,000 ft / 305 m 46.05431˚ 14.64848˚ 12 nm 29 nm 107° / 107° -
DOL VOR - 1,000 ft / 305 m 46.08414˚ 14.77858˚ 5 nm 35 nm 72° / 72° DOLSKO VOR-DME
ILB VOR - 1,000 ft / 305 m 45.56559˚ 14.17086˚ 40 nm 75 nm 219° / 219° BISTRICA VOR-DME
BUGEV FIX - 1,000 ft / 305 m 45.46557˚ 13.77344˚ 17 nm 93 nm 250° / 250° -
O LJPZ APT - 0 ft / 0 m 45.47718˚ 13.61198˚ 6 nm 100 nm 276° / 276° -

Altitude Profile

Advertisement - Login to hide

LJLJ

Details ICAO LJLJ (LJU)
Name LJUBLJANA
Region Slovenia
Timezone Europe/Ljubljana (UTC+1.0)
Stats Elevation 1,273 ft / 388 m (AMSL)
Location 46.223685° 14.457608°
Runways 1
Magnetic Variation 3.661° E

METAR

LJLJ 140030Z VRB02KT 6000 FEW003 SCT025 BKN060 00/M00 Q1010 NOSIG

Decode

TAF

TAF TAF LJLJ 132000Z 1321/1421 30003KT 7000 FEW003 OVC035 TEMPO 1321/1323 3500 -SN BR BKN010 OVC020 TEMPO 1323/1410 3500 -RA BR BKN010 OVC020 PROB40 TEMPO 1321/1408 0500 FZFG BECMG 1408/1410 27005KT 9999 TEMPO 1412/1418 27010KT SCT035 TEMPO 1416/1421 7000 SHRA SCT030TCU BKN035

Decode

Departure Runways

ID Width Length Bearing (true) Bearing (mag) Surface Threshold Offset Overrun Length
13 148 ft / 45 m 10,811 ft / 3,295 m 126.47° 122.81° Asphalt 0 ft / 0 m 0 ft / 0 m
31 148 ft / 45 m 10,811 ft / 3,295 m 306.49° 302.83° Asphalt 0 ft / 0 m 0 ft / 0 m

LJPZ

Details ICAO LJPZ (POW)
Name PORTOROZ
Region Slovenia
Timezone Europe/Ljubljana (UTC+1.0)
Stats Elevation 7 ft / 2 m (AMSL)
Location 45.472445° 13.615681°
Runways 1
Magnetic Variation 3.443° E

METAR

LJPZ 140030Z AUTO 17004KT 9999 FEW021/// SCT027/// BKN170/// 08/06 Q1012

Decode

TAF

Not found

Destination Runways

ID Width Length Bearing (true) Bearing (mag) Surface Threshold Offset Overrun Length
15 98 ft / 30 m 3,939 ft / 1,201 m 151.28° 147.84° Asphalt 0 ft / 0 m 0 ft / 0 m
33 98 ft / 30 m 3,939 ft / 1,201 m 331.29° 327.85° Asphalt 751 ft / 229 m 0 ft / 0 m

Popular Alternatives